Time;durP1;ratioP1;P1;durP2;ratioP2;P2;SDS_P1;SDS_P2;PMS_P1;PMS_P2;Temp;Humidity;BMP_temperature;BMP_pressure;BME280_temperature;BME280_humidity;BME280_pressure;Samples;Min_cycle;Max_cycle;Signal;HPM_P1;HPM_P2
2021/11/15 00:02:15;;;;;;;;;;;205.00;2252.80;;;;;;4956330;28;20038;-80
2021/11/15 00:04:41;;;;;;;47.53;26.85;;;205.00;2252.80;;;;;;4957177;28;19957;-74
2021/11/15 00:07:07;;;;;;;;;;;205.20;2252.80;;;;;;4958094;28;20027;-75
2021/11/15 00:09:34;;;;;;;49.10;27.13;;;205.20;2252.80;;;;;;4947620;28;19925;-79
2021/11/15 00:12:01;;;;;;;57.10;28.58;;;204.90;2252.80;;;;;;4954827;29;20078;-78
2021/11/15 00:14:27;;;;;;;54.50;27.58;;;205.20;2252.80;;;;;;4955342;29;20027;-78
2021/11/15 00:16:53;;;;;;;52.05;25.80;;;205.20;2252.80;;;;;;4955664;29;20039;-77
2021/11/15 00:19:18;;;;;;;;;;;205.20;2252.80;;;;;;4955996;29;20027;-80
2021/11/15 00:21:44;;;;;;;48.58;24.88;;;205.10;2252.80;;;;;;4938327;29;19906;-80
2021/11/15 00:24:09;;;;;;;;;;;204.90;2252.80;;;;;;4956179;29;20438;-75
2021/11/15 00:26:35;;;;;;;65.50;34.72;;;205.00;2252.80;;;;;;4955458;29;19913;-79
2021/11/15 00:29:01;;;;;;;;;;;205.00;2252.80;;;;;;4938726;29;20044;-79
2021/11/15 00:31:27;;;;;;;57.38;34.28;;;205.00;2252.80;;;;;;4955575;29;19949;-76
2021/11/15 00:33:53;;;;;;;;;;;205.10;2252.80;;;;;;4956309;29;20034;-80
2021/11/15 00:36:20;;;;;;;54.87;29.27;;;205.10;2252.80;;;;;;4958876;28;19921;-77
2021/11/15 00:38:46;;;;;;;56.20;32.72;;;205.10;2252.80;;;;;;4942377;29;20024;-75
2021/11/15 00:41:12;;;;;;;63.50;35.88;;;205.10;2252.80;;;;;;4942134;29;20031;-79
2021/11/15 00:43:38;;;;;;;65.93;37.42;;;205.20;2252.80;;;;;;4959210;28;20031;-78
2021/11/15 00:46:04;;;;;;;;;;;205.30;2252.80;;;;;;4959410;29;20027;-76
2021/11/15 00:48:30;;;;;;;55.85;31.98;;;205.20;2252.80;;;;;;4958805;29;19910;-77
2021/11/15 00:51:01;;;;;;;;;;;205.20;2252.80;;;;;;4959303;28;20031;-75
2021/11/15 00:53:28;;;;;;;55.05;32.20;;;205.20;2252.80;;;;;;4941572;29;20429;-76
2021/11/15 00:55:54;;;;;;;57.05;35.05;;;205.20;2252.80;;;;;;4958799;29;20039;-80
2021/11/15 00:58:20;;;;;;;59.63;34.13;;;205.10;2252.80;;;;;;4958871;29;20490;-80
2021/11/15 01:00:45;;;;;;;;;;;205.20;2252.80;;;;;;4959332;29;20024;-80
2021/11/15 01:03:13;;;;;;;60.05;33.45;;;205.20;2252.80;;;;;;4958977;28;19950;-75
2021/11/15 01:05:49;;;;;;;66.00;37.60;;;205.20;2252.80;;;;;;4941715;29;20101;-80
2021/11/15 01:08:16;;;;;;;55.95;31.45;;;205.30;2252.80;;;;;;4958373;28;20431;-80
2021/11/15 01:10:44;;;;;;;65.35;38.33;;;205.20;2252.80;;;;;;4941528;29;20063;-75
2021/11/15 01:13:23;;;;;;;68.25;38.90;;;205.20;2252.80;;;;;;4958544;29;20047;-80
2021/11/15 01:15:50;;;;;;;79.20;42.58;;;205.20;2252.80;;;;;;4940788;29;20086;-80
2021/11/15 01:18:17;;;;;;;67.57;41.28;;;205.50;2252.80;;;;;;4958372;29;20542;-75
2021/11/15 01:20:43;;;;;;;71.60;39.60;;;205.30;2252.80;;;;;;4958427;29;20158;-76
2021/11/15 01:23:09;;;;;;;63.03;38.90;;;205.30;2252.80;;;;;;4958419;29;20471;-79
2021/11/15 01:25:36;;;;;;;;;;;205.40;2252.80;;;;;;4941673;29;20467;-74
2021/11/15 01:28:02;;;;;;;51.65;29.75;;;205.30;2252.80;;;;;;4941170;29;20279;-75
2021/11/15 01:30:28;;;;;;;75.90;40.20;;;205.30;2252.80;;;;;;4940398;29;20035;-76
2021/11/15 01:32:54;;;;;;;;;;;205.30;2252.80;;;;;;4958564;28;20082;-75
2021/11/15 01:35:20;;;;;;;72.30;40.75;;;205.30;2252.80;;;;;;4958335;29;19911;-74
2021/11/15 01:38:07;;;;;;;80.65;43.63;;;205.20;2252.80;;;;;;4958402;29;20031;-81
2021/11/15 01:40:33;;;;;;;78.35;43.25;;;205.10;2252.80;;;;;;4941122;29;20027;-75
2021/11/15 01:43:06;;;;;;;78.57;42.55;;;205.10;2252.80;;;;;;4941656;29;20035;-81
2021/11/15 01:45:33;;;;;;;75.22;42.92;;;205.00;2252.80;;;;;;4941344;29;20034;-80
2021/11/15 01:48:02;;;;;;;75.00;42.03;;;204.90;2252.80;;;;;;4940121;29;20035;-75
2021/11/15 01:50:30;;;;;;;71.60;43.28;;;204.90;2252.80;;;;;;4957614;29;20494;-79
2021/11/15 01:52:57;;;;;;;80.97;44.60;;;204.90;2252.80;;;;;;4940315;29;20483;-74
2021/11/15 01:55:25;;;;;;;70.32;42.25;;;204.90;2252.80;;;;;;4957544;29;20023;-79
2021/11/15 01:57:52;;;;;;;77.25;44.22;;;205.00;2252.80;;;;;;4957430;29;20031;-80
2021/11/15 02:00:27;;;;;;;76.50;43.42;;;205.00;2252.80;;;;;;4957372;29;20023;-77
2021/11/15 02:02:52;;;;;;;77.00;44.28;;;204.90;2252.80;;;;;;4940045;29;20055;-80
2021/11/15 02:05:18;;;;;;;;;;;204.90;2252.80;;;;;;4958117;29;20059;-80
2021/11/15 02:07:44;;;;;;;72.05;43.60;;;204.90;2252.80;;;;;;4957751;29;19906;-79
2021/11/15 02:10:10;;;;;;;;;;;204.80;2252.80;;;;;;4940405;29;20122;-75
2021/11/15 02:12:37;;;;;;;68.77;41.07;;;204.90;2252.80;;;;;;4939799;29;19922;-76
2021/11/15 02:15:05;;;;;;;66.50;39.95;;;204.80;2252.80;;;;;;4939328;29;20323;-79
2021/11/15 02:17:32;;;;;;;74.50;44.17;;;204.80;2252.80;;;;;;4940037;29;20043;-76
2021/11/15 02:20:03;;;;;;;73.18;42.92;;;204.90;2252.80;;;;;;4957232;29;20023;-75
2021/11/15 02:22:28;;;;;;;69.43;41.67;;;204.90;2252.80;;;;;;4940247;29;20050;-80
2021/11/15 02:24:54;;;;;;;;;;;204.90;2252.80;;;;;;4957795;29;20411;-77
2021/11/15 02:27:20;;;;;;;64.97;38.70;;;204.90;2252.80;;;;;;4939818;29;19928;-82
2021/11/15 02:29:46;;;;;;;;;;;204.90;2252.80;;;;;;4961016;29;20023;-79
2021/11/15 02:32:12;;;;;;;66.57;40.10;;;205.00;2252.80;;;;;;4946969;29;19991;-81
2021/11/15 02:34:38;;;;;;;;;;;204.80;2252.80;;;;;;4940266;29;20450;-78
2021/11/15 02:37:04;;;;;;;66.35;40.45;;;180.10;2252.80;;;;;;4956835;29;20380;-81
2021/11/15 02:39:29;;;;;;;;;;;179.90;2252.80;;;;;;4957453;29;20476;-81
2021/11/15 02:41:55;;;;;;;52.45;32.08;;;179.90;2252.80;;;;;;4956924;29;19914;-75
2021/11/15 02:44:21;;;;;;;;;;;179.70;2252.80;;;;;;4940142;29;20031;-75
2021/11/15 02:46:47;;;;;;;61.38;35.38;;;179.70;2252.80;;;;;;4956965;29;19970;-78
2021/11/15 02:49:13;;;;;;;;;;;179.60;2252.80;;;;;;4940150;29;20034;-78
2021/11/15 02:51:39;;;;;;;71.03;37.70;;;179.50;2252.80;;;;;;4939980;29;20270;-81
2021/11/15 02:54:05;;;;;;;;;;;179.40;2252.80;;;;;;4940243;29;20024;-75
2021/11/15 02:56:31;;;;;;;65.15;37.55;;;179.40;2252.80;;;;;;4956697;29;19914;-79
2021/11/15 02:58:56;;;;;;;;;;;179.40;2252.80;;;;;;4938881;29;20467;-77
2021/11/15 03:01:22;;;;;;;65.32;37.65;;;179.40;2252.80;;;;;;4939839;29;19945;-74
2021/11/15 03:03:49;;;;;;;70.65;42.53;;;179.40;2252.80;;;;;;4956376;29;20023;-79
2021/11/15 03:06:14;;;;;;;84.18;43.13;;;179.40;2252.80;;;;;;4956690;29;20475;-80
2021/11/15 03:08:40;;;;;;;;;;;179.30;2252.80;;;;;;4939943;29;20043;-79
2021/11/15 03:11:07;;;;;;;107.05;42.92;;;179.40;2252.80;;;;;;4956465;29;19910;-80
2021/11/15 03:13:42;;;;;;;93.18;44.03;;;179.30;2252.80;;;;;;4939436;29;20086;-79
2021/11/15 03:16:08;;;;;;;178.80;50.08;;;179.30;2252.80;;;;;;4956459;29;20106;-75
2021/11/15 03:18:36;;;;;;;108.43;45.85;;;179.40;2252.80;;;;;;4939272;29;20023;-79
2021/11/15 03:21:10;;;;;;;74.63;42.33;;;179.30;2252.80;;;;;;4939344;29;20063;-79
2021/11/15 03:23:41;;;;;;;84.13;42.08;;;179.30;2252.80;;;;;;4956536;29;20027;-80
2021/11/15 03:26:07;;;;;;;84.80;41.10;;;154.50;2252.80;;;;;;4956001;29;20027;-75
2021/11/15 03:28:37;;;;;;;83.18;40.22;;;154.30;2252.80;;;;;;4938974;29;20388;-80
2021/11/15 03:31:08;;;;;;;125.32;41.33;;;154.20;2252.80;;;;;;4955937;29;20499;-75
2021/11/15 03:33:36;;;;;;;86.82;38.55;;;154.20;2252.80;;;;;;4956115;29;20035;-80
2021/11/15 03:36:03;;;;;;;57.83;36.47;;;154.20;2252.80;;;;;;4956178;29;20039;-79
2021/11/15 03:38:29;;;;;;;77.30;36.55;;;154.20;2252.80;;;;;;4939107;29;20034;-79
2021/11/15 03:40:56;;;;;;;;;;;154.30;2252.80;;;;;;4956682;29;20376;-80
2021/11/15 03:43:22;;;;;;;100.00;33.30;;;154.40;2252.80;;;;;;4939102;29;19907;-80
2021/11/15 03:45:49;;;;;;;60.33;33.97;;;154.00;2252.80;;;;;;4956020;29;20488;-75
2021/11/15 03:48:15;;;;;;;55.85;32.03;;;153.80;2252.80;;;;;;4938732;29;20078;-78
2021/11/15 03:50:42;;;;;;;;;;;154.10;2252.80;;;;;;4938876;29;20031;-75
2021/11/15 03:53:11;;;;;;;41.90;24.00;;;153.70;2252.80;;;;;;4938548;29;19913;-78
2021/11/15 03:55:37;;;;;;;52.13;32.35;;;153.80;2252.80;;;;;;4938647;29;20648;-80
2021/11/15 03:58:04;;;;;;;65.53;33.95;;;153.90;2252.80;;;;;;4938749;29;20502;-80
2021/11/15 04:00:32;;;;;;;264.75;46.17;;;153.80;2252.80;;;;;;4955939;29;20027;-80
2021/11/15 04:03:03;;;;;;;316.13;48.13;;;153.70;2252.80;;;;;;4955517;29;20027;-75
2021/11/15 04:05:33;;;;;;;179.60;42.67;;;128.40;2252.80;;;;;;4955920;29;20102;-79
2021/11/15 04:08:05;;;;;;;132.68;40.30;;;128.30;2252.80;;;;;;4955608;29;20023;-76
2021/11/15 04:10:37;;;;;;;83.60;37.90;;;128.10;2252.80;;;;;;4955293;29;20078;-79
2021/11/15 04:13:13;;;;;;;295.38;47.85;;;128.50;2252.80;;;;;;4955783;29;20066;-80
2021/11/15 04:15:38;;;;;;;259.52;48.03;;;128.00;2252.80;;;;;;4955529;29;20507;-80
2021/11/15 04:18:05;;;;;;;;;;;128.00;2252.80;;;;;;4956043;29;20047;-80
2021/11/15 04:20:31;;;;;;;93.75;32.50;;;128.20;2252.80;;;;;;4955887;29;19910;-78
2021/11/15 04:22:57;;;;;;;;;;;128.30;2252.80;;;;;;4955682;29;20126;-78
2021/11/15 04:25:23;;;;;;;65.35;40.60;;;128.70;2252.80;;;;;;4955585;29;19908;-78
2021/11/15 04:27:49;;;;;;;;;;;128.70;2252.80;;;;;;4955858;29;20039;-75
2021/11/15 04:30:15;;;;;;;80.55;37.40;;;128.60;2252.80;;;;;;4938110;29;19906;-75
2021/11/15 04:32:43;;;;;;;223.55;43.05;;;128.90;2252.80;;;;;;4955409;29;20027;-75
2021/11/15 04:35:12;;;;;;;162.25;42.90;;;128.90;2252.80;;;;;;4955305;29;20419;-75
2021/11/15 04:37:39;;;;;;;229.77;44.58;;;153.60;2252.80;;;;;;4955276;29;20043;-79
2021/11/15 04:40:07;;;;;;;160.38;39.20;;;153.70;2252.80;;;;;;4955463;29;20028;-80
2021/11/15 04:42:34;;;;;;;158.70;45.00;;;153.80;2252.80;;;;;;4938429;29;20027;-80
2021/11/15 04:45:00;;;;;;;138.05;39.92;;;153.70;2252.80;;;;;;4955177;29;20038;-80
2021/11/15 04:47:26;;;;;;;184.20;43.90;;;153.80;2252.80;;;;;;4938002;29;20247;-79
2021/11/15 04:49:57;;;;;;;;;;;153.70;2252.80;;;;;;4938590;29;20035;-80
2021/11/15 04:52:23;;;;;;;233.85;44.67;;;153.80;2252.80;;;;;;4955237;29;19961;-80
2021/11/15 04:54:49;;;;;;;77.05;37.15;;;153.70;2252.80;;;;;;4955063;29;20060;-79
2021/11/15 04:57:17;;;;;;;;;;;153.70;2252.80;;;;;;4938393;29;20070;-79
2021/11/15 04:59:43;;;;;;;176.18;45.97;;;153.60;2252.80;;;;;;4938253;29;19956;-80
2021/11/15 05:02:09;;;;;;;;;;;153.60;2252.80;;;;;;4938532;29;20074;-79
2021/11/15 05:04:34;;;;;;;88.25;37.00;;;128.80;2252.80;;;;;;4955281;29;19915;-75
2021/11/15 05:07:00;;;;;;;;;;;128.90;2252.80;;;;;;4955379;29;20119;-76
2021/11/15 05:09:26;;;;;;;91.40;34.13;;;153.60;2252.80;;;;;;4937882;29;19942;-78
2021/11/15 05:11:52;;;;;;;;;;;128.90;2252.80;;;;;;4968485;28;20521;-80
2021/11/15 05:14:17;;;;;;;52.78;32.72;;;128.80;2252.80;;;;;;4974211;28;19913;-79
2021/11/15 05:16:43;;;;;;;;;;;128.80;2252.80;;;;;;4974621;28;20117;-76
2021/11/15 05:19:09;;;;;;;115.35;35.70;;;128.90;2252.80;;;;;;4974338;28;19942;-80
2021/11/15 05:21:34;;;;;;;;;;;128.80;2252.80;;;;;;4952817;28;20031;-80
2021/11/15 05:24:00;;;;;;;157.88;38.80;;;128.70;2252.80;;;;;;4958282;29;19913;-75
2021/11/15 05:26:28;;;;;;;;;;;128.70;2252.80;;;;;;4958859;29;20111;-85
2021/11/15 05:28:54;;;;;;;102.25;44.78;;;128.50;2252.80;;;;;;4941420;29;19913;-81
2021/11/15 05:31:19;;;;;;;;;;;128.50;2252.80;;;;;;4940714;29;20035;-75
2021/11/15 05:33:45;;;;;;;78.00;29.50;;;128.50;2252.80;;;;;;4957772;29;20383;-77
2021/11/15 05:36:11;;;;;;;;;;;128.50;2252.80;;;;;;4941596;29;20129;-82
2021/11/15 05:38:36;;;;;;;60.65;28.88;;;128.50;2252.80;;;;;;4958165;29;19910;-80
2021/11/15 05:41:02;;;;;;;;;;;128.40;2252.80;;;;;;4958782;29;20035;-81
2021/11/15 05:43:28;;;;;;;54.08;29.20;;;128.40;2252.80;;;;;;4958076;29;19913;-82
2021/11/15 05:45:54;;;;;;;;;;;128.30;2252.80;;;;;;4958078;29;20047;-75
2021/11/15 05:48:20;;;;;;;57.88;28.65;;;128.40;2252.80;;;;;;4957346;29;19952;-76
2021/11/15 05:50:46;;;;;;;;;;;128.20;2252.80;;;;;;4957913;29;20038;-79
2021/11/15 05:53:15;;;;;;;47.22;26.90;;;128.30;2252.80;;;;;;4957685;29;20000;-78
2021/11/15 05:55:42;;;;;;;50.85;27.50;;;128.10;2252.80;;;;;;4957391;29;20106;-75
2021/11/15 05:58:08;;;;;;;47.15;28.20;;;103.20;2227.20;;;;;;4940498;29;20031;-75
2021/11/15 06:00:35;;;;;;;62.30;29.73;;;103.20;2227.20;;;;;;4940182;29;20031;-76
2021/11/15 06:03:01;;;;;;;58.22;30.42;;;102.70;2227.20;;;;;;4957034;29;20031;-75
2021/11/15 06:05:27;;;;;;;;;;;102.80;2227.20;;;;;;4957580;29;20030;-74
2021/11/15 06:07:54;;;;;;;93.70;33.20;;;102.60;2227.20;;;;;;4939806;29;19913;-75
2021/11/15 06:10:21;;;;;;;60.90;32.72;;;102.60;2227.20;;;;;;4955762;29;20506;-75
2021/11/15 06:12:47;;;;;;;53.58;31.92;;;102.80;2227.20;;;;;;4957045;29;20546;-76
2021/11/15 06:15:15;;;;;;;57.70;31.13;;;102.80;2227.20;;;;;;4948156;28;20130;-76
2021/11/15 06:17:41;;;;;;;45.55;29.52;;;103.10;2227.20;;;;;;4956414;29;20046;-76
2021/11/15 06:20:08;;;;;;;69.60;31.83;;;103.30;2227.20;;;;;;4965077;28;20023;-76
2021/11/15 06:22:34;;;;;;;53.83;28.65;;;103.20;2227.20;;;;;;4966526;28;20023;-74
2021/11/15 06:24:59;;;;;;;;;;;103.10;2227.20;;;;;;4965545;28;20034;-74
2021/11/15 06:27:25;;;;;;;52.20;27.95;;;103.10;2227.20;;;;;;4956282;29;20370;-78
2021/11/15 06:29:51;;;;;;;;;;;103.00;2227.20;;;;;;4957151;29;20026;-75
2021/11/15 06:32:17;;;;;;;42.08;27.88;;;103.10;2227.20;;;;;;4956435;28;19961;-75
2021/11/15 06:34:42;;;;;;;63.65;42.05;;;103.20;2227.20;;;;;;4956628;29;20051;-74
2021/11/15 06:37:08;;;;;;;;;;;128.00;2252.80;;;;;;4956857;29;20099;-74
2021/11/15 06:39:35;;;;;;;57.45;42.70;;;154.00;2252.80;;;;;;4939455;29;20362;-74
2021/11/15 06:42:01;;;;;;;60.78;41.35;;;128.30;2252.80;;;;;;4939443;29;20031;-74
2021/11/15 06:44:29;;;;;;;50.92;34.53;;;128.30;2252.80;;;;;;4939057;28;20043;-74
2021/11/15 06:47:05;;;;;;;50.42;31.25;;;128.40;2252.80;;;;;;4962833;28;20027;-81
2021/11/15 06:49:53;;;;;;;48.67;28.02;;;128.60;2252.80;;;;;;4947993;28;20039;-76
2021/11/15 06:52:22;;;;;;;42.15;27.27;;;128.70;2252.80;;;;;;4960907;28;20031;-75
2021/11/15 06:54:48;;;;;;;50.20;28.27;;;128.90;2252.80;;;;;;4958645;28;20025;-74
2021/11/15 06:57:15;;;;;;;46.13;29.25;;;153.60;2252.80;;;;;;4975557;28;20483;-74
2021/11/15 06:59:41;;;;;;;62.50;30.50;;;153.80;2252.80;;;;;;4951771;28;20019;-76
2021/11/15 07:02:07;;;;;;;44.17;28.35;;;153.80;2252.80;;;;;;4964609;28;20106;-74
2021/11/15 07:04:33;;;;;;;47.38;30.50;;;154.00;2252.80;;;;;;4965148;28;20030;-77
2021/11/15 07:07:31;;;;;;;;;;;154.00;2252.80;;;;;;4956122;29;20383;-74
2021/11/15 07:09:56;;;;;;;48.05;28.67;;;153.70;2252.80;;;;;;4948489;28;19926;-75
2021/11/15 07:12:22;;;;;;;;;;;153.80;2252.80;;;;;;4965158;28;20019;-77
2021/11/15 07:14:48;;;;;;;47.70;29.63;;;153.90;2252.80;;;;;;4964948;28;20389;-77
2021/11/15 07:17:13;;;;;;;;;;;154.10;2252.80;;;;;;4946361;29;20035;-75
2021/11/15 07:19:39;;;;;;;51.13;30.27;;;154.30;2252.80;;;;;;4938513;29;19906;-74
2021/11/15 07:22:24;;;;;;;;;;;154.40;2252.80;;;;;;4938816;29;20484;-75
2021/11/15 07:24:50;;;;;;;48.50;30.60;;;154.50;2252.80;;;;;;4955602;29;20318;-74
2021/11/15 07:27:16;;;;;;;;;;;179.20;2252.80;;;;;;4940129;28;20023;-79
2021/11/15 07:29:42;;;;;;;45.47;29.10;;;179.30;2252.80;;;;;;4947162;28;19949;-75
2021/11/15 07:32:13;;;;;;;51.03;30.88;;;179.30;2252.80;;;;;;4948073;28;20030;-74
2021/11/15 07:34:53;;;;;;;49.75;30.00;;;179.50;2252.80;;;;;;4961366;28;20026;-74
2021/11/15 07:37:19;;;;;;;50.08;28.25;;;179.70;2252.80;;;;;;4960156;28;20035;-74
2021/11/15 07:39:45;;;;;;;;;;;179.70;2252.80;;;;;;4964682;28;20019;-77
2021/11/15 07:42:16;;;;;;;57.55;31.63;;;179.80;2252.80;;;;;;4965477;28;20318;-75
2021/11/15 07:44:44;;;;;;;53.42;32.22;;;179.70;2252.80;;;;;;4936814;29;20035;-77
2021/11/15 07:47:11;;;;;;;52.33;31.88;;;179.90;2252.80;;;;;;4937694;29;20042;-81
2021/11/15 07:49:37;;;;;;;53.17;32.60;;;180.10;2252.80;;;;;;4961966;28;20026;-82
2021/11/15 07:52:13;;;;;;;54.72;32.55;;;180.10;2252.80;;;;;;4966306;28;20467;-76
2021/11/15 07:54:39;;;;;;;50.00;31.73;;;204.80;2252.80;;;;;;4960334;28;20475;-75
2021/11/15 07:57:08;;;;;;;60.72;33.53;;;204.90;2252.80;;;;;;4963711;28;20115;-80
2021/11/15 07:59:34;;;;;;;50.63;32.53;;;205.10;2252.80;;;;;;4954900;28;20451;-78
2021/11/15 08:01:59;;;;;;;;;;;205.00;2252.80;;;;;;4957658;28;20038;-78
2021/11/15 08:04:25;;;;;;;58.83;32.55;;;205.30;2252.80;;;;;;4957351;28;20292;-77
2021/11/15 08:06:51;;;;;;;;;;;205.30;2252.80;;;;;;4974871;28;20019;-77
2021/11/15 08:09:16;;;;;;;54.92;29.60;;;205.40;2252.80;;;;;;4974453;28;20381;-74
2021/11/15 08:11:43;;;;;;;;;;;205.40;2252.80;;;;;;4975124;28;20470;-77
2021/11/15 08:14:09;;;;;;;53.58;30.08;;;205.60;2252.80;;;;;;4974466;28;19910;-77
2021/11/15 08:16:35;;;;;;;;;;;205.70;2252.80;;;;;;4957211;28;20402;-76
2021/11/15 08:19:00;;;;;;;56.10;32.75;;;230.40;2252.80;;;;;;4974244;28;20398;-74
2021/11/15 08:21:26;;;;;;;;;;;230.40;2252.80;;;;;;4968664;28;20023;-77
2021/11/15 08:23:53;;;;;;;56.40;31.55;;;230.50;2252.80;;;;;;4970867;28;19910;-76
2021/11/15 08:26:56;;;;;;;55.53;31.83;;;230.60;2252.80;;;;;;4948110;28;20035;-78
2021/11/15 08:29:25;;;;;;;53.83;30.58;;;230.70;2252.80;;;;;;4935936;29;20049;-76
2021/11/15 08:31:53;;;;;;;49.17;30.10;;;230.70;2252.80;;;;;;4935760;29;20055;-76
2021/11/15 08:34:20;;;;;;;45.97;27.23;;;230.80;2252.80;;;;;;4951211;29;20034;-77
2021/11/15 08:36:47;;;;;;;45.13;26.85;;;230.90;2252.80;;;;;;4954844;29;20035;-77
2021/11/15 08:39:29;;;;;;;43.80;27.10;;;231.00;2252.80;;;;;;4954902;29;20020;-74
2021/11/15 08:41:58;;;;;;;40.55;25.23;;;231.10;2252.80;;;;;;4954531;29;20130;-74
2021/11/15 08:44:26;;;;;;;37.97;23.40;;;231.10;2252.80;;;;;;4937528;29;20027;-75
2021/11/15 08:46:53;;;;;;;46.38;26.83;;;231.20;2252.80;;;;;;4954761;29;20480;-74
2021/11/15 08:49:21;;;;;;;41.92;24.55;;;231.30;2252.80;;;;;;4954811;29;20029;-75
2021/11/15 08:51:48;;;;;;;40.25;24.23;;;231.30;2252.80;;;;;;4935725;29;20056;-74
2021/11/15 08:54:16;;;;;;;38.83;22.40;;;256.10;2252.80;;;;;;4936112;29;20134;-77
2021/11/15 08:56:48;;;;;;;43.95;23.85;;;256.10;2252.80;;;;;;4957333;28;20035;-75
2021/11/15 08:59:14;;;;;;;36.55;22.42;;;256.30;2252.80;;;;;;4958435;29;20019;-75
2021/11/15 09:01:40;;;;;;;39.05;25.25;;;256.30;2252.80;;;;;;4958409;29;20030;-75
2021/11/15 09:04:09;;;;;;;45.08;24.67;;;256.50;2252.80;;;;;;4941272;29;20027;-74
2021/11/15 09:06:38;;;;;;;36.67;22.35;;;256.50;2252.80;;;;;;4939950;29;20115;-74
2021/11/15 09:09:07;;;;;;;34.67;22.52;;;256.70;2252.80;;;;;;4958304;28;20105;-74
2021/11/15 09:11:33;;;;;;;36.95;23.23;;;256.80;2252.80;;;;;;4958101;29;20023;-74
2021/11/15 09:13:59;;;;;;;31.73;20.70;;;256.90;2252.80;;;;;;4958014;29;20498;-75
2021/11/15 09:16:25;;;;;;;;;;;281.60;2278.40;;;;;;4958549;29;20097;-74
2021/11/15 09:18:51;;;;;;;37.72;21.05;;;281.80;2278.40;;;;;;4957794;28;19914;-75
2021/11/15 09:21:17;;;;;;;35.40;19.83;;;281.80;2278.40;;;;;;4940615;29;20038;-74
2021/11/15 09:23:46;;;;;;;30.42;19.30;;;281.90;2278.40;;;;;;4940766;29;20464;-76
2021/11/15 09:26:28;;;;;;;33.42;21.95;;;281.90;2278.40;;;;;;4957893;29;20031;-75
2021/11/15 09:29:02;;;;;;;34.75;20.45;;;282.00;2278.40;;;;;;4940641;29;20166;-74
2021/11/15 09:31:28;;;;;;;37.15;22.05;;;282.20;2278.40;;;;;;4940524;29;20031;-74
2021/11/15 09:33:54;;;;;;;33.70;19.42;;;282.40;2278.40;;;;;;4940491;29;20038;-77
2021/11/15 09:36:24;;;;;;;33.17;20.10;;;307.20;2304.00;;;;;;4973124;28;20033;-83
2021/11/15 09:38:53;;;;;;;29.52;17.80;;;307.40;2304.00;;;;;;4961567;28;20041;-82
2021/11/15 09:41:19;;;;;;;41.63;21.92;;;307.50;2304.00;;;;;;4960555;28;20031;-77
2021/11/15 09:43:45;;;;;;;29.33;17.60;;;307.80;2304.00;;;;;;4960297;28;20118;-81
2021/11/15 09:46:17;;;;;;;29.27;17.95;;;307.70;2304.00;;;;;;4959757;28;20122;-79
2021/11/15 09:48:46;;;;;;;28.45;17.33;;;307.80;2304.00;;;;;;4957827;28;20035;-80
2021/11/15 09:51:13;;;;;;;32.50;19.15;;;307.90;2304.00;;;;;;4968377;28;20534;-79
2021/11/15 09:53:39;;;;;;;35.65;18.40;;;308.10;2304.00;;;;;;4949483;28;20027;-81
2021/11/15 09:56:07;;;;;;;38.72;21.45;;;308.10;2304.00;;;;;;4943433;29;20043;-82
2021/11/15 09:58:35;;;;;;;25.77;17.42;;;308.10;2304.00;;;;;;4940746;28;20039;-87
2021/11/15 10:01:00;;;;;;;25.13;16.65;;;332.90;2329.60;;;;;;4946458;29;20129;-82
2021/11/15 10:03:27;;;;;;;26.02;16.50;;;333.10;2329.60;;;;;;4972933;28;20019;-83
2021/11/15 10:05:53;;;;;;;32.08;19.25;;;333.20;2329.60;;;;;;4954597;29;20019;-83
2021/11/15 10:08:19;;;;;;;26.08;16.52;;;333.30;2329.60;;;;;;4938534;29;20050;-85
2021/11/15 10:10:55;;;;;;;26.27;17.10;;;333.40;2329.60;;;;;;4956850;28;20023;-85
2021/11/15 10:13:26;;;;;;;28.30;15.43;;;333.50;2329.60;;;;;;4951541;28;20130;-88
2021/11/15 10:15:59;;;;;;;34.20;20.02;;;333.50;2329.60;;;;;;4946871;28;20442;-83
2021/11/15 10:18:42;;;;;;;27.40;17.65;;;358.40;2329.60;;;;;;4948210;28;20068;-84
2021/11/15 10:21:16;;;;;;;22.83;14.95;;;358.50;2329.60;;;;;;4962360;28;20486;-77
2021/11/15 10:23:42;;;;;;;23.33;16.08;;;358.70;2329.60;;;;;;4941718;28;20035;-79
2021/11/15 10:26:28;;;;;;;26.92;16.48;;;358.80;2329.60;;;;;;4959822;28;20070;-77
2021/11/15 10:29:02;;;;;;;28.20;15.82;;;358.90;2329.60;;;;;;4955542;28;20058;-78
2021/11/15 10:31:38;;;;;;;22.20;14.00;;;359.00;2329.60;;;;;;4971220;28;20039;-76
2021/11/15 10:34:10;;;;;;;23.35;14.95;;;358.90;2329.60;;;;;;4949011;28;20019;-81
2021/11/15 10:36:55;;;;;;;24.27;15.20;;;358.80;2329.60;;;;;;4948127;28;20097;-83
2021/11/15 10:39:28;;;;;;;25.23;14.70;;;359.20;2329.60;;;;;;4966624;28;20023;-83
2021/11/15 10:42:13;;;;;;;20.15;13.63;;;384.00;2329.60;;;;;;4959532;28;20031;-84
2021/11/15 10:44:50;;;;;;;21.17;14.75;;;384.00;2329.60;;;;;;4959407;28;20118;-83
2021/11/15 10:47:18;;;;;;;22.35;13.00;;;384.10;2329.60;;;;;;4973459;28;20031;-77
2021/11/15 10:49:45;;;;;;;18.67;12.82;;;384.10;2329.60;;;;;;4967335;28;20038;-83
2021/11/15 10:52:14;;;;;;;17.75;12.15;;;384.30;2329.60;;;;;;4939608;29;20023;-79
2021/11/15 10:54:49;;;;;;;21.67;13.93;;;384.50;2329.60;;;;;;4939610;29;20054;-83
2021/11/15 10:57:31;;;;;;;22.52;14.63;;;384.30;2329.60;;;;;;4939492;29;20093;-77
2021/11/15 11:00:06;;;;;;;16.58;10.85;;;384.90;2329.60;;;;;;4956720;29;20035;-78
2021/11/15 11:02:40;;;;;;;15.70;10.15;;;384.90;2329.60;;;;;;4940009;29;20034;-76
2021/11/15 11:05:10;;;;;;;14.27;10.13;;;384.40;2329.60;;;;;;4956469;29;20118;-83
2021/11/15 11:07:37;;;;;;;17.40;10.50;;;384.40;2329.60;;;;;;4956731;29;20062;-78
2021/11/15 11:10:08;;;;;;;15.60;9.98;;;384.20;2329.60;;;;;;4939261;29;20431;-76
2021/11/15 11:12:46;;;;;;;22.65;13.85;;;384.20;2329.60;;;;;;4956407;29;20020;-80
2021/11/15 11:15:49;;;;;;;22.00;10.32;;;384.10;2329.60;;;;;;4939318;29;20134;-78
2021/11/15 11:26:33;;;;;;;17.45;10.45;;;384.60;2329.60;;;;;;4898174;29;20024;-76
2021/11/15 11:29:09;;;;;;;16.58;10.65;;;384.50;2329.60;;;;;;4881956;29;20036;-76
2021/11/15 11:31:38;;;;;;;16.92;11.30;;;384.40;2329.60;;;;;;4897225;29;20025;-89
2021/11/15 11:34:05;;;;;;;15.18;10.02;;;384.40;2329.60;;;;;;4896918;29;20127;-89
2021/11/15 11:36:30;;;;;;;15.68;9.45;;;384.70;2329.60;;;;;;4880725;29;20044;-81
2021/11/15 11:38:57;;;;;;;20.52;9.60;;;384.70;2329.60;;;;;;4896208;29;20028;-79
2021/11/15 11:41:23;;;;;;;16.80;9.38;;;384.90;2329.60;;;;;;4896211;29;20115;-81
2021/11/15 11:43:50;;;;;;;14.20;9.88;;;384.90;2329.60;;;;;;4895858;29;20037;-78
2021/11/15 11:46:19;;;;;;;14.02;9.02;;;384.60;2329.60;;;;;;4896217;29;20036;-76
2021/11/15 11:48:50;;;;;;;14.98;8.82;;;384.60;2329.60;;;;;;4881437;29;20124;-79
2021/11/15 11:51:19;;;;;;;15.90;9.93;;;384.60;2329.60;;;;;;4897120;29;20032;-79
2021/11/15 11:53:45;;;;;;;15.35;9.50;;;384.70;2329.60;;;;;;4908153;29;20054;-78
2021/11/15 11:56:21;;;;;;;21.25;11.45;;;384.90;2304.00;;;;;;4955618;29;20031;-77
2021/11/15 11:58:50;;;;;;;15.25;8.63;;;384.80;2329.60;;;;;;4955512;29;20019;-81
2021/11/15 12:01:23;;;;;;;12.95;8.70;;;384.70;2304.00;;;;;;4961924;28;20027;-79
2021/11/15 12:04:21;;;;;;;14.30;7.80;;;384.70;2304.00;;;;;;4946486;28;20019;-79
2021/11/15 12:06:49;;;;;;;14.77;8.45;;;384.70;2304.00;;;;;;4965096;28;20043;-84
2021/11/15 12:09:22;;;;;;;13.20;9.02;;;384.50;2329.60;;;;;;4962174;28;20114;-82
2021/11/15 12:12:00;;;;;;;14.68;10.10;;;384.40;2329.60;;;;;;4961183;28;20115;-81
2021/11/15 12:14:31;;;;;;;14.43;9.60;;;384.20;2329.60;;;;;;4955640;29;20032;-80
2021/11/15 12:17:17;;;;;;;14.70;9.70;;;384.10;2329.60;;;;;;4938620;29;20098;-82
2021/11/15 12:20:05;;;;;;;14.30;8.73;;;384.00;2329.60;;;;;;4955744;29;20028;-80
2021/11/15 12:22:43;;;;;;;13.93;8.85;;;384.00;2329.60;;;;;;4956014;29;20066;-82
2021/11/15 12:25:21;;;;;;;15.85;8.80;;;359.20;2329.60;;;;;;4955854;29;20090;-79
2021/11/15 12:27:59;;;;;;;15.20;9.63;;;359.20;2329.60;;;;;;4938755;29;20027;-84
2021/11/15 12:30:35;;;;;;;19.65;9.07;;;359.20;2329.60;;;;;;4938861;29;20019;-82
2021/11/15 12:33:16;;;;;;;14.60;9.33;;;359.30;2329.60;;;;;;4942085;29;20538;-85